Terminal Aerodrome Forecast
Issued by NWS

Current Version | Previous Version | Graphics & Text | Print | Product List | Glossary On
Versions: 1 2 3 4 5 6 7 8 9 10 11 12 13 14 15 16 17 18 19 20 21 22 23 24 25 26 27 28 29 30 31
000
FTUS41 KILN 291600 AAC
TAFLCK
TAF AMD
KLCK 291609Z 2916/3012 10004KT P6SM -RA BKN050 OVC060
      TEMPO 2916/2917 2SM +RA OVC035
     FM291700 17012G18KT P6SM VCSH BKN040
     FM292000 18012G20KT P6SM VCTS BKN040CB
     FM300000 19012KT P6SM VCSH BKN035
     FM300400 23010KT P6SM BKN035=

USA.gov is the U.S. government's official web portal to all federal, state and local government web resources and services.